Time;durP1;ratioP1;P1;durP2;ratioP2;P2;SDS_P1;SDS_P2;PMS_P1;PMS_P2;Temp;Humidity;BMP_temperature;BMP_pressure;BME280_temperature;BME280_humidity;BME280_pressure;Samples;Min_cycle;Max_cycle;Signal;HPM_P1;HPM_P2
2022/02/27 00:00:22;;;;;;;8.35;3.27;;;0.70;99.90;;;;;;1941249;74;21027;-77
2022/02/27 00:02:49;;;;;;;30.08;3.55;;;0.70;99.90;;;;;;1941403;74;21059;-77
2022/02/27 00:05:16;;;;;;;9.68;2.95;;;0.80;99.90;;;;;;1941257;74;21165;-76
2022/02/27 00:07:44;;;;;;;5.47;2.47;;;0.80;99.90;;;;;;1941442;74;21085;-79
2022/02/27 00:10:11;;;;;;;9.95;3.25;;;0.80;99.90;;;;;;1941269;74;21105;-76
2022/02/27 00:12:39;;;;;;;8.45;3.02;;;0.70;99.90;;;;;;1941298;74;21518;-76
2022/02/27 00:15:07;;;;;;;8.23;3.55;;;0.70;99.90;;;;;;1941298;74;21492;-75
2022/02/27 00:17:37;;;;;;;10.13;3.72;;;0.70;99.90;;;;;;1941435;74;21108;-77
2022/02/27 00:20:05;;;;;;;11.33;3.45;;;0.70;99.90;;;;;;1941369;74;21118;-75
2022/02/27 00:22:33;;;;;;;7.47;2.90;;;0.70;99.90;;;;;;1941776;74;21348;-75
2022/02/27 00:25:01;;;;;;;19.15;4.03;;;0.70;99.90;;;;;;1941677;73;21074;-75
2022/02/27 00:27:30;;;;;;;8.55;3.58;;;0.70;99.90;;;;;;1941638;73;21031;-77
2022/02/27 00:29:58;;;;;;;7.45;3.60;;;0.70;99.90;;;;;;1941535;73;21039;-75
2022/02/27 00:32:25;;;;;;;8.63;3.20;;;0.70;99.90;;;;;;1941798;74;21096;-77
2022/02/27 00:34:52;;;;;;;9.08;2.98;;;0.60;99.90;;;;;;1920096;74;21500;-77
2022/02/27 00:37:19;;;;;;;9.83;3.10;;;0.50;99.90;;;;;;1941750;74;21112;-75
2022/02/27 00:39:47;;;;;;;13.53;3.90;;;0.50;99.90;;;;;;1941443;74;21043;-75
2022/02/27 00:42:14;;;;;;;11.50;3.15;;;0.50;99.90;;;;;;1941581;74;21034;-75
2022/02/27 00:44:43;;;;;;;9.38;2.95;;;0.40;99.90;;;;;;1941448;74;21092;-76
2022/02/27 00:47:10;;;;;;;7.60;3.30;;;0.40;99.90;;;;;;1941441;74;21447;-75
2022/02/27 00:49:37;;;;;;;9.95;3.30;;;0.30;99.90;;;;;;1941477;74;21019;-76
2022/02/27 00:52:05;;;;;;;7.60;2.92;;;0.30;99.90;;;;;;1941611;74;21093;-74
2022/02/27 00:54:32;;;;;;;7.55;2.87;;;0.30;99.90;;;;;;1941498;73;21004;-75
2022/02/27 00:57:00;;;;;;;9.30;3.62;;;0.30;99.90;;;;;;1941516;74;21007;-76
2022/02/27 00:59:27;;;;;;;8.73;3.45;;;0.10;99.90;;;;;;1941660;74;21040;-77
2022/02/27 01:01:54;;;;;;;17.42;3.40;;;0.20;99.90;;;;;;1941604;74;21116;-75
2022/02/27 01:04:22;;;;;;;10.25;4.15;;;0.20;99.90;;;;;;1941588;74;21087;-75
2022/02/27 01:06:49;;;;;;;10.82;3.55;;;0.10;99.90;;;;;;1941590;74;21100;-78
2022/02/27 01:09:16;;;;;;;6.60;3.77;;;0.00;99.90;;;;;;1941661;74;21042;-78
2022/02/27 01:11:44;;;;;;;10.15;3.33;;;0.00;99.90;;;;;;1941554;74;21136;-78
2022/02/27 01:14:11;;;;;;;9.18;3.95;;;0.00;99.90;;;;;;1941599;73;21501;-77
2022/02/27 01:16:38;;;;;;;8.50;3.35;;;0.00;99.90;;;;;;1926327;74;21070;-78
2022/02/27 01:19:07;;;;;;;7.00;3.40;;;0.00;99.90;;;;;;1941499;74;21100;-77
2022/02/27 01:21:35;;;;;;;12.90;4.45;;;0.00;99.90;;;;;;1941626;74;21058;-76
2022/02/27 01:24:02;;;;;;;9.80;3.27;;;0.00;99.90;;;;;;1941296;74;21145;-77
2022/02/27 01:26:29;;;;;;;7.53;3.40;;;-0.10;99.90;;;;;;1941254;74;21125;-77
2022/02/27 01:28:57;;;;;;;14.60;3.45;;;-0.10;99.90;;;;;;1941083;74;21034;-74
2022/02/27 01:31:24;;;;;;;10.20;3.60;;;-0.10;99.90;;;;;;1941191;74;21067;-75
2022/02/27 01:33:51;;;;;;;11.60;3.30;;;-0.10;99.90;;;;;;1941242;74;21023;-76
2022/02/27 01:36:19;;;;;;;14.00;3.62;;;-0.10;99.90;;;;;;1941284;74;21027;-75
2022/02/27 01:38:46;;;;;;;10.03;3.55;;;-0.10;99.90;;;;;;1941297;73;21104;-78
2022/02/27 01:41:14;;;;;;;14.35;3.98;;;-0.10;99.90;;;;;;1941617;74;21082;-76
2022/02/27 01:43:42;;;;;;;27.42;3.77;;;-0.10;99.90;;;;;;1941665;74;21054;-75
2022/02/27 01:46:10;;;;;;;8.65;3.00;;;0.00;99.90;;;;;;1940869;74;21499;-75
2022/02/27 01:48:38;;;;;;;6.40;3.00;;;0.00;99.90;;;;;;1941084;73;21424;-74
2022/02/27 01:51:05;;;;;;;9.33;3.40;;;0.00;99.90;;;;;;1940940;74;21483;-74
2022/02/27 01:53:33;;;;;;;9.28;3.50;;;0.00;99.90;;;;;;1941060;74;21004;-75
2022/02/27 01:56:01;;;;;;;11.33;3.52;;;0.00;99.90;;;;;;1940908;74;21028;-76
2022/02/27 01:58:28;;;;;;;10.13;3.10;;;-0.20;99.90;;;;;;1940867;74;21499;-77
2022/02/27 02:00:56;;;;;;;14.00;3.52;;;-0.10;99.90;;;;;;1940851;74;21097;-75
2022/02/27 02:03:24;;;;;;;10.38;3.02;;;-0.20;99.90;;;;;;1940988;74;21112;-77
2022/02/27 02:05:52;;;;;;;14.83;3.53;;;-0.20;99.90;;;;;;1940804;74;21032;-76
2022/02/27 02:08:19;;;;;;;8.88;3.30;;;-0.20;99.90;;;;;;1940682;74;21104;-76
2022/02/27 02:10:46;;;;;;;10.25;3.40;;;-0.20;99.90;;;;;;1940828;74;21035;-76
2022/02/27 02:13:14;;;;;;;10.15;3.25;;;-0.20;99.90;;;;;;1940815;74;21070;-76
2022/02/27 02:15:41;;;;;;;9.88;3.00;;;-0.20;99.90;;;;;;1940979;74;21412;-78
2022/02/27 02:18:09;;;;;;;5.50;2.75;;;-0.20;99.90;;;;;;1940813;74;21102;-76
2022/02/27 02:20:37;;;;;;;7.62;2.72;;;-0.20;99.90;;;;;;1940874;73;21034;-78
2022/02/27 02:23:05;;;;;;;8.98;2.62;;;-0.20;99.90;;;;;;1941010;73;21058;-76
2022/02/27 02:25:32;;;;;;;10.20;2.80;;;-0.30;99.90;;;;;;1940991;74;21023;-75
2022/02/27 02:27:59;;;;;;;4.40;2.40;;;-0.30;99.90;;;;;;1940972;74;21007;-75
2022/02/27 02:30:27;;;;;;;7.08;3.05;;;-0.30;99.90;;;;;;1940922;74;21112;-75
2022/02/27 02:32:58;;;;;;;18.40;3.58;;;-0.30;99.90;;;;;;1941020;74;21058;-76
2022/02/27 02:35:27;;;;;;;7.67;2.70;;;-0.30;99.90;;;;;;1940980;74;21038;-76
2022/02/27 02:37:54;;;;;;;6.97;2.65;;;-0.30;99.90;;;;;;1941108;74;21067;-75
2022/02/27 02:40:25;;;;;;;9.20;2.87;;;-0.40;99.90;;;;;;1940948;74;21112;-75
2022/02/27 02:42:52;;;;;;;12.13;3.30;;;-0.30;99.90;;;;;;1941087;74;21015;-76
2022/02/27 02:45:19;;;;;;;8.23;3.25;;;-0.30;99.90;;;;;;1941098;74;21166;-75
2022/02/27 02:47:48;;;;;;;12.07;3.10;;;-0.30;99.90;;;;;;1941017;74;21097;-76
2022/02/27 02:50:16;;;;;;;11.75;3.72;;;-0.30;99.90;;;;;;1941027;74;21043;-76
2022/02/27 02:52:43;;;;;;;6.50;2.77;;;-0.40;99.90;;;;;;1941011;74;21120;-75
2022/02/27 02:55:15;;;;;;;7.78;3.42;;;-0.40;99.90;;;;;;1940968;74;21092;-75
2022/02/27 02:57:42;;;;;;;9.53;2.77;;;-0.40;99.90;;;;;;1940984;74;21021;-76
2022/02/27 03:00:11;;;;;;;7.87;3.08;;;-0.40;99.90;;;;;;1940905;74;21096;-76
2022/02/27 03:02:38;;;;;;;11.25;3.42;;;-0.50;99.90;;;;;;1940914;74;21015;-76
2022/02/27 03:05:06;;;;;;;11.90;3.50;;;-0.50;99.90;;;;;;1940985;74;21066;-76
2022/02/27 03:07:35;;;;;;;9.55;3.27;;;-0.50;99.90;;;;;;1940975;73;21012;-75
2022/02/27 03:10:06;;;;;;;10.63;3.08;;;-0.50;99.90;;;;;;1940797;74;21034;-76
2022/02/27 03:12:33;;;;;;;7.80;2.77;;;-0.60;99.90;;;;;;1941057;74;21022;-76
2022/02/27 03:15:00;;;;;;;12.40;3.35;;;-0.60;99.90;;;;;;1941006;74;21166;-76
2022/02/27 03:17:28;;;;;;;11.65;3.80;;;-0.70;99.90;;;;;;1940941;74;21039;-77
2022/02/27 03:19:55;;;;;;;7.30;2.77;;;-0.80;99.90;;;;;;1941006;74;21093;-75
2022/02/27 03:22:23;;;;;;;5.20;2.83;;;-0.70;99.90;;;;;;1941042;74;21039;-75
2022/02/27 03:24:50;;;;;;;8.60;2.55;;;-0.70;99.90;;;;;;1940989;74;21063;-74
2022/02/27 03:27:17;;;;;;;10.40;3.40;;;-0.80;99.90;;;;;;1940935;74;21039;-76
2022/02/27 03:29:45;;;;;;;6.12;2.77;;;-0.80;99.90;;;;;;1940954;74;21090;-75
2022/02/27 03:32:12;;;;;;;9.48;3.25;;;-0.80;99.90;;;;;;1940962;74;21039;-76
2022/02/27 03:34:39;;;;;;;5.28;2.40;;;-0.70;99.90;;;;;;1940909;74;21050;-75
2022/02/27 03:37:06;;;;;;;5.20;2.62;;;-0.70;99.90;;;;;;1941002;74;21023;-76
2022/02/27 03:39:34;;;;;;;10.13;3.37;;;-0.90;99.90;;;;;;1940992;74;21451;-76
2022/02/27 03:42:01;;;;;;;10.32;3.52;;;-0.70;99.90;;;;;;1941022;74;21108;-77
2022/02/27 03:44:28;;;;;;;11.30;3.10;;;-0.80;99.90;;;;;;1940929;74;21482;-76
2022/02/27 03:46:56;;;;;;;7.87;3.55;;;-0.70;99.90;;;;;;1940951;74;21117;-76
2022/02/27 03:49:23;;;;;;;9.18;3.17;;;-0.80;99.90;;;;;;1940904;74;21535;-76
2022/02/27 03:51:50;;;;;;;7.75;3.25;;;-0.90;99.90;;;;;;1941141;74;21007;-77
2022/02/27 03:54:19;;;;;;;14.93;3.40;;;-0.90;99.90;;;;;;1940992;74;21015;-76
2022/02/27 03:56:47;;;;;;;12.90;3.70;;;-0.90;99.90;;;;;;1940898;73;21091;-76
2022/02/27 03:59:15;;;;;;;8.20;3.20;;;-0.90;99.90;;;;;;1941036;74;21038;-76
2022/02/27 04:01:42;;;;;;;9.10;3.47;;;-1.00;99.90;;;;;;1940957;74;21035;-75
2022/02/27 04:04:10;;;;;;;7.05;3.25;;;-0.90;99.90;;;;;;1941074;74;21431;-75
2022/02/27 04:06:37;;;;;;;7.95;3.60;;;-0.90;99.90;;;;;;1941014;74;21150;-75
2022/02/27 04:09:04;;;;;;;10.10;3.70;;;-0.90;99.90;;;;;;1940857;74;21424;-75
2022/02/27 04:11:31;;;;;;;13.62;4.22;;;-0.90;99.90;;;;;;1940875;74;21034;-75
2022/02/27 04:13:59;;;;;;;8.98;3.55;;;-0.80;99.90;;;;;;1941082;74;21430;-76
2022/02/27 04:16:26;;;;;;;13.13;3.60;;;-1.00;99.90;;;;;;1940974;74;21026;-76
2022/02/27 04:18:53;;;;;;;9.33;3.92;;;-1.00;99.90;;;;;;1940849;74;21439;-75
2022/02/27 04:21:22;;;;;;;9.95;4.00;;;-1.10;99.90;;;;;;1941102;74;21038;-76
2022/02/27 04:23:49;;;;;;;7.30;3.95;;;-1.10;99.90;;;;;;1941018;74;21058;-75
2022/02/27 04:26:16;;;;;;;10.25;3.58;;;-1.00;99.90;;;;;;1940834;74;21426;-76
2022/02/27 04:28:44;;;;;;;10.58;3.52;;;-0.90;99.90;;;;;;1940801;74;21031;-77
2022/02/27 04:31:12;;;;;;;7.67;3.33;;;-0.90;99.90;;;;;;1941045;74;21467;-76
2022/02/27 04:33:39;;;;;;;8.88;3.30;;;-1.10;99.90;;;;;;1940937;74;21431;-76
2022/02/27 04:36:06;;;;;;;8.05;2.98;;;-1.00;99.90;;;;;;1940978;74;21089;-76
2022/02/27 04:38:34;;;;;;;11.05;3.52;;;-1.00;99.90;;;;;;1940979;74;21096;-76
2022/02/27 04:41:01;;;;;;;8.70;3.95;;;-1.00;99.90;;;;;;1940819;73;21493;-76
2022/02/27 04:43:28;;;;;;;8.50;2.87;;;-1.00;99.90;;;;;;1940959;74;21012;-75
2022/02/27 04:45:56;;;;;;;14.13;3.67;;;-1.00;99.90;;;;;;1940856;74;21030;-76
2022/02/27 04:48:23;;;;;;;5.87;2.98;;;-1.00;99.90;;;;;;1940954;73;21509;-75
2022/02/27 04:50:50;;;;;;;9.43;3.15;;;-0.90;99.90;;;;;;1940745;74;21054;-76
2022/02/27 04:53:17;;;;;;;7.50;3.42;;;-1.00;99.90;;;;;;1940967;74;21100;-75
2022/02/27 04:55:45;;;;;;;7.20;3.02;;;-1.10;99.90;;;;;;1940790;73;21412;-75
2022/02/27 04:58:12;;;;;;;8.40;3.15;;;-1.00;99.90;;;;;;1940930;74;21026;-75
2022/02/27 05:00:40;;;;;;;6.90;3.37;;;-1.10;99.90;;;;;;1940861;74;21439;-75
2022/02/27 05:03:07;;;;;;;7.87;3.17;;;-1.00;99.90;;;;;;1940803;74;21467;-75
2022/02/27 05:05:34;;;;;;;6.65;3.10;;;-1.10;99.90;;;;;;1940894;74;21007;-76
2022/02/27 05:08:02;;;;;;;8.68;3.50;;;-1.20;99.90;;;;;;1940896;74;21174;-76
2022/02/27 05:10:29;;;;;;;6.90;2.65;;;-1.20;99.90;;;;;;1940765;74;21046;-76
2022/02/27 05:12:56;;;;;;;11.78;3.37;;;-1.10;99.90;;;;;;1941000;74;21085;-76
2022/02/27 05:15:24;;;;;;;9.05;3.35;;;-1.20;99.90;;;;;;1941104;74;21112;-76
2022/02/27 05:17:51;;;;;;;10.85;3.00;;;-1.10;99.90;;;;;;1940792;74;21103;-76
2022/02/27 05:20:18;;;;;;;10.03;3.22;;;-1.10;99.90;;;;;;1940936;74;21423;-76
2022/02/27 05:22:46;;;;;;;11.85;3.35;;;-1.10;99.90;;;;;;1940830;74;21027;-76
2022/02/27 05:25:19;;;;;;;5.15;2.80;;;-1.10;99.90;;;;;;1940826;74;21011;-75
2022/02/27 05:27:48;;;;;;;11.65;3.22;;;-1.20;99.90;;;;;;1941017;74;21070;-75
2022/02/27 05:30:15;;;;;;;11.57;3.67;;;-1.10;99.90;;;;;;1939945;74;21011;-75
2022/02/27 05:32:43;;;;;;;11.80;3.60;;;-1.20;99.90;;;;;;1940809;74;21509;-76
2022/02/27 05:35:10;;;;;;;10.15;3.02;;;-1.20;99.90;;;;;;1940952;74;21473;-75
2022/02/27 05:37:38;;;;;;;8.85;3.30;;;-1.20;99.90;;;;;;1940859;74;21117;-76
2022/02/27 05:40:06;;;;;;;11.28;3.37;;;-1.10;99.90;;;;;;1940832;74;21094;-77
2022/02/27 05:42:34;;;;;;;14.43;3.77;;;-1.20;99.90;;;;;;1940853;74;21104;-76
2022/02/27 05:45:01;;;;;;;7.95;3.58;;;-1.20;99.90;;;;;;1940983;74;21091;-77
2022/02/27 05:47:29;;;;;;;8.10;3.05;;;-1.20;99.90;;;;;;1940834;74;21418;-76
2022/02/27 05:49:56;;;;;;;11.33;3.45;;;-1.30;99.90;;;;;;1940907;74;21077;-75
2022/02/27 05:52:23;;;;;;;6.62;3.75;;;-1.30;99.90;;;;;;1941015;74;21395;-75
2022/02/27 05:54:51;;;;;;;7.55;3.27;;;-1.30;99.90;;;;;;1940971;74;21096;-75
2022/02/27 05:57:18;;;;;;;12.50;4.05;;;-1.20;99.90;;;;;;1940755;74;21026;-76
2022/02/27 05:59:45;;;;;;;10.70;3.60;;;-1.20;99.90;;;;;;1940917;74;21011;-75
2022/02/27 06:02:13;;;;;;;9.08;3.47;;;-1.30;99.90;;;;;;1940843;74;21092;-75
2022/02/27 06:04:40;;;;;;;5.80;3.12;;;-1.30;99.90;;;;;;1940878;74;21127;-75
2022/02/27 06:07:08;;;;;;;7.42;3.67;;;-1.20;99.90;;;;;;1940819;74;21034;-76
2022/02/27 06:09:35;;;;;;;7.37;3.77;;;-1.20;99.90;;;;;;1940883;74;21011;-76
2022/02/27 06:12:02;;;;;;;5.90;3.62;;;-1.20;99.90;;;;;;1940850;73;21528;-75
2022/02/27 06:14:30;;;;;;;7.83;3.27;;;-1.20;99.90;;;;;;1940847;74;21117;-76
2022/02/27 06:16:57;;;;;;;10.32;4.15;;;-1.20;99.90;;;;;;1940959;73;21139;-76
2022/02/27 06:19:25;;;;;;;14.63;3.85;;;-1.30;99.90;;;;;;1940853;74;21101;-75
2022/02/27 06:21:52;;;;;;;13.32;3.67;;;-1.20;99.90;;;;;;1940917;74;21400;-75
2022/02/27 06:24:19;;;;;;;10.88;3.70;;;-1.20;99.90;;;;;;1941039;74;21054;-76
2022/02/27 06:26:47;;;;;;;9.28;3.85;;;-1.20;99.90;;;;;;1940791;73;21490;-76
2022/02/27 06:29:14;;;;;;;13.43;4.50;;;-1.30;99.90;;;;;;1940916;74;21008;-75
2022/02/27 06:31:41;;;;;;;9.03;3.83;;;-1.20;99.90;;;;;;1940785;74;21124;-76
2022/02/27 06:34:09;;;;;;;8.60;3.65;;;-1.10;99.90;;;;;;1941023;73;21030;-74
2022/02/27 06:36:36;;;;;;;7.78;3.83;;;-1.10;99.90;;;;;;1940972;74;21004;-76
2022/02/27 06:39:03;;;;;;;8.23;3.55;;;-1.10;99.90;;;;;;1941328;74;21008;-77
2022/02/27 06:41:31;;;;;;;16.05;4.33;;;-1.00;99.90;;;;;;1940822;74;21036;-74
2022/02/27 06:43:58;;;;;;;8.48;4.05;;;-1.00;99.90;;;;;;1940828;73;21089;-75
2022/02/27 06:46:25;;;;;;;8.98;3.72;;;-1.00;99.90;;;;;;1940923;74;21015;-74
2022/02/27 06:48:53;;;;;;;7.87;4.30;;;-1.00;99.90;;;;;;1940957;74;21128;-75
2022/02/27 06:51:20;;;;;;;10.90;3.77;;;-1.00;99.90;;;;;;1940820;74;21491;-76
2022/02/27 06:53:47;;;;;;;6.28;4.05;;;-0.90;99.90;;;;;;1941005;74;21120;-74
2022/02/27 06:56:14;;;;;;;7.53;3.85;;;-0.80;99.90;;;;;;1922303;73;21555;-75
2022/02/27 06:58:42;;;;;;;8.83;3.98;;;-0.90;99.90;;;;;;1910093;73;21061;-75
2022/02/27 07:01:09;;;;;;;13.05;4.37;;;-0.90;99.90;;;;;;1931926;73;21168;-75
2022/02/27 07:03:36;;;;;;;8.78;3.77;;;-0.90;99.90;;;;;;1940765;74;21139;-74
2022/02/27 07:06:04;;;;;;;9.03;4.75;;;-0.80;99.90;;;;;;1940727;74;21096;-74
2022/02/27 07:08:31;;;;;;;17.23;5.10;;;-0.80;99.90;;;;;;1940932;74;21034;-74
2022/02/27 07:11:02;;;;;;;12.07;4.45;;;-0.80;99.90;;;;;;1940951;74;21015;-74
2022/02/27 07:13:27;;;;;;;17.52;4.40;;;-0.60;99.90;;;;;;1940423;74;21212;-75
2022/02/27 07:15:55;;;;;;;10.43;4.67;;;-0.60;99.90;;;;;;1941030;73;21030;-75
2022/02/27 07:18:22;;;;;;;15.75;4.50;;;-0.50;99.90;;;;;;1941149;73;21395;-77
2022/02/27 07:20:49;;;;;;;11.33;4.75;;;-0.50;99.90;;;;;;1940879;74;21064;-76
2022/02/27 07:23:17;;;;;;;14.38;5.22;;;-0.40;99.90;;;;;;1940882;74;21547;-74
2022/02/27 07:25:44;;;;;;;6.22;4.40;;;-0.40;99.90;;;;;;1941053;74;21035;-74
2022/02/27 07:28:14;;;;;;;16.73;5.60;;;-0.30;99.90;;;;;;1941015;74;21100;-74
2022/02/27 07:30:40;;;;;;;15.13;5.25;;;-0.20;99.90;;;;;;1940583;74;21180;-75
2022/02/27 07:33:07;;;;;;;10.43;5.33;;;-0.20;99.90;;;;;;1940996;74;21089;-74
2022/02/27 07:35:35;;;;;;;12.93;5.67;;;-0.10;99.90;;;;;;1940953;73;21089;-76
2022/02/27 07:38:02;;;;;;;12.05;5.35;;;0.00;99.90;;;;;;1941108;74;21125;-74
2022/02/27 07:40:29;;;;;;;15.32;5.25;;;0.20;99.90;;;;;;1941037;74;21042;-74
2022/02/27 07:42:57;;;;;;;14.53;5.62;;;0.30;99.90;;;;;;1941078;73;21065;-76
2022/02/27 07:45:24;;;;;;;10.85;5.62;;;0.40;99.90;;;;;;1940952;74;21501;-76
2022/02/27 07:47:51;;;;;;;9.23;4.83;;;0.40;99.90;;;;;;1940973;74;21112;-76
2022/02/27 07:50:19;;;;;;;15.55;5.53;;;0.60;99.90;;;;;;1941102;74;21030;-76
2022/02/27 07:52:46;;;;;;;10.93;5.67;;;0.70;99.90;;;;;;1940972;74;21030;-76
2022/02/27 07:55:13;;;;;;;12.00;5.45;;;0.90;99.90;;;;;;1941046;74;21157;-76
2022/02/27 07:57:40;;;;;;;11.22;5.72;;;1.10;99.90;;;;;;1941065;74;21050;-77
2022/02/27 08:00:16;;;;;;;9.55;5.60;;;1.40;99.90;;;;;;1941259;74;21204;-78
2022/02/27 08:02:42;;;;;;;11.20;5.30;;;1.70;99.90;;;;;;1940607;74;21172;-77
2022/02/27 08:05:09;;;;;;;12.15;4.72;;;2.00;99.90;;;;;;1941069;74;21042;-76
2022/02/27 08:07:38;;;;;;;13.10;5.75;;;2.20;99.90;;;;;;1941587;73;21127;-77
2022/02/27 08:10:06;;;;;;;8.80;4.97;;;2.40;99.90;;;;;;1941118;73;21116;-76
2022/02/27 08:12:34;;;;;;;8.60;4.47;;;2.60;99.90;;;;;;1941103;74;21028;-77
2022/02/27 08:15:01;;;;;;;8.68;5.03;;;2.90;99.90;;;;;;1941157;74;21039;-77
2022/02/27 08:17:28;;;;;;;11.78;4.87;;;3.10;99.90;;;;;;1941105;74;21034;-78
2022/02/27 08:19:56;;;;;;;10.08;5.15;;;3.30;99.90;;;;;;1941538;74;21015;-78
2022/02/27 08:22:23;;;;;;;6.03;3.77;;;3.60;99.90;;;;;;1942302;74;21063;-76
2022/02/27 08:24:50;;;;;;;7.22;4.08;;;3.70;99.90;;;;;;1910861;74;21047;-77
2022/02/27 08:27:18;;;;;;;8.13;4.42;;;3.90;99.90;;;;;;1945011;74;21149;-77
2022/02/27 08:29:45;;;;;;;8.75;4.33;;;4.00;99.90;;;;;;1943329;74;21452;-76
2022/02/27 08:32:12;;;;;;;5.95;3.58;;;4.10;99.90;;;;;;1944615;74;21036;-76
2022/02/27 08:34:39;;;;;;;6.58;3.30;;;4.40;99.90;;;;;;1944499;74;21133;-75
2022/02/27 08:37:08;;;;;;;9.98;3.37;;;4.40;99.90;;;;;;1944483;74;21068;-76
2022/02/27 08:39:35;;;;;;;7.80;3.52;;;4.60;99.90;;;;;;1944397;74;21067;-76
2022/02/27 08:42:04;;;;;;;6.70;3.70;;;4.70;99.90;;;;;;1944550;74;21039;-77
2022/02/27 08:44:36;;;;;;;8.38;4.10;;;4.70;99.90;;;;;;1944696;74;21011;-77
2022/02/27 08:47:04;;;;;;;19.00;3.90;;;4.90;99.90;;;;;;1942429;74;21118;-76
2022/02/27 08:49:31;;;;;;;12.68;3.42;;;5.10;99.90;;;;;;1940920;74;21050;-77
2022/02/27 08:51:58;;;;;;;7.58;3.62;;;5.20;99.90;;;;;;1940856;74;21042;-77
2022/02/27 08:54:26;;;;;;;6.15;3.33;;;5.40;99.90;;;;;;1940961;74;21113;-77
2022/02/27 08:56:55;;;;;;;13.45;4.33;;;5.50;99.90;;;;;;1940884;74;21030;-78
2022/02/27 08:59:23;;;;;;;5.80;3.27;;;5.70;99.90;;;;;;1940853;73;21087;-78
2022/02/27 09:01:51;;;;;;;6.85;3.83;;;5.80;99.90;;;;;;1940882;74;21074;-78
2022/02/27 09:04:18;;;;;;;8.45;3.72;;;6.00;99.90;;;;;;1940824;74;21062;-77
2022/02/27 09:06:45;;;;;;;10.00;4.47;;;6.20;99.90;;;;;;1940982;74;21038;-78
2022/02/27 09:09:16;;;;;;;6.62;4.03;;;6.10;99.90;;;;;;1941080;74;21038;-78
2022/02/27 09:11:42;;;;;;;;;;;6.00;99.90;;;;;;1943708;74;21066;-77
2022/02/27 09:14:10;;;;;;;6.28;3.75;;;6.10;99.90;;;;;;1941014;74;20315;-77
2022/02/27 09:16:39;;;;;;;7.55;3.65;;;6.30;99.90;;;;;;1941010;73;21026;-77
2022/02/27 09:19:06;;;;;;;7.58;3.95;;;6.10;99.90;;;;;;1941109;74;21035;-78
2022/02/27 09:21:33;;;;;;;7.25;3.80;;;6.40;99.90;;;;;;1941112;74;21027;-77
2022/02/27 09:24:00;;;;;;;13.18;4.00;;;6.40;99.90;;;;;;1940974;73;21108;-78
2022/02/27 09:26:29;;;;;;;4.92;3.52;;;6.40;99.90;;;;;;1940884;74;21078;-78
2022/02/27 09:28:57;;;;;;;12.43;3.27;;;6.70;99.90;;;;;;1941179;74;21026;-78
2022/02/27 09:31:24;;;;;;;6.22;3.20;;;6.90;99.90;;;;;;1940826;73;21450;-78
2022/02/27 09:33:51;;;;;;;7.67;3.20;;;7.10;99.90;;;;;;1940926;74;21022;-78
2022/02/27 09:36:20;;;;;;;10.40;3.05;;;7.00;99.90;;;;;;1941133;74;21419;-78
2022/02/27 09:38:47;;;;;;;8.48;3.87;;;7.20;99.90;;;;;;1940983;74;21438;-78
2022/02/27 09:41:16;;;;;;;6.25;3.05;;;7.30;99.90;;;;;;1940365;74;21157;-78
2022/02/27 09:43:44;;;;;;;7.50;3.65;;;7.00;99.90;;;;;;1941118;74;21004;-77
2022/02/27 09:46:12;;;;;;;5.97;3.50;;;7.10;99.90;;;;;;1940948;73;21008;-78
2022/02/27 09:48:40;;;;;;;6.00;3.83;;;7.40;99.90;;;;;;1880530;74;21077;-78
2022/02/27 09:51:07;;;;;;;5.62;3.30;;;7.40;99.90;;;;;;1941029;73;21035;-78
2022/02/27 09:53:36;;;;;;;8.38;3.67;;;7.80;99.90;;;;;;1940952;74;20992;-78
2022/02/27 09:56:04;;;;;;;8.70;3.27;;;7.60;99.90;;;;;;1941047;74;21031;-78
2022/02/27 09:58:56;;;;;;;7.33;3.40;;;8.00;99.90;;;;;;1941003;74;21476;-79
2022/02/27 10:01:23;;;;;;;9.85;3.67;;;8.00;99.90;;;;;;1847751;76;21097;-76
2022/02/27 10:03:52;;;;;;;5.72;3.55;;;8.00;99.90;;;;;;1828181;77;21073;-78
2022/02/27 10:06:19;;;;;;;4.87;3.02;;;7.80;99.90;;;;;;1830706;77;21049;-79
2022/02/27 10:08:49;;;;;;;3.77;2.47;;;7.90;99.90;;;;;;1850893;77;21173;-80
2022/02/27 10:11:20;;;;;;;14.13;3.62;;;8.50;99.90;;;;;;1846796;77;21539;-80
2022/02/27 10:13:51;;;;;;;6.30;2.75;;;8.80;99.90;;;;;;1848913;77;21053;-77
2022/02/27 10:16:20;;;;;;;9.13;3.70;;;9.00;99.90;;;;;;1865097;75;21057;-78
2022/02/27 10:18:49;;;;;;;6.60;3.10;;;8.80;99.90;;;;;;1852355;75;21481;-78
2022/02/27 10:21:21;;;;;;;4.42;2.92;;;9.00;99.90;;;;;;1853867;75;21135;-79
2022/02/27 10:24:04;;;;;;;5.70;2.58;;;9.20;99.90;;;;;;1853765;77;21077;-80
2022/02/27 10:26:32;;;;;;;6.87;2.58;;;8.90;99.90;;;;;;1853673;75;21470;-79
2022/02/27 10:29:13;;;;;;;5.87;2.95;;;8.60;99.90;;;;;;1848683;77;21093;-78
2022/02/27 10:31:43;;;;;;;5.58;2.95;;;8.70;99.90;;;;;;1843078;75;21052;-80
2022/02/27 10:34:24;;;;;;;6.67;3.15;;;8.80;99.90;;;;;;1853770;76;21053;-79
2022/02/27 10:36:56;;;;;;;5.90;2.75;;;8.80;99.90;;;;;;1852673;77;21072;-78
2022/02/27 10:39:28;;;;;;;6.58;2.65;;;9.10;99.90;;;;;;1844302;77;21163;-78
2022/02/27 10:41:55;;;;;;;3.95;2.42;;;9.30;99.90;;;;;;1852708;75;21062;-78
2022/02/27 10:44:23;;;;;;;6.15;2.42;;;9.40;99.90;;;;;;1844445;77;21080;-78
2022/02/27 10:47:11;;;;;;;4.10;2.05;;;8.90;99.90;;;;;;1871894;76;21426;-78
2022/02/27 10:49:38;;;;;;;9.40;2.80;;;8.60;99.90;;;;;;1854284;77;21205;-80
2022/02/27 10:52:20;;;;;;;5.58;2.60;;;9.30;99.90;;;;;;1853198;75;21131;-79
2022/02/27 10:54:52;;;;;;;3.95;1.98;;;9.00;99.90;;;;;;1847535;75;21119;-78
2022/02/27 10:57:32;;;;;;;3.12;2.02;;;8.90;99.90;;;;;;1850776;77;21143;-80
2022/02/27 11:00:20;;;;;;;4.30;2.12;;;9.20;99.90;;;;;;1873225;76;21045;-79
2022/02/27 11:02:56;;;;;;;4.05;2.30;;;9.40;99.90;;;;;;1852566;77;21088;-79
2022/02/27 11:05:25;;;;;;;2.95;2.08;;;9.40;99.90;;;;;;1847958;77;21442;-79
2022/02/27 11:07:57;;;;;;;3.05;1.85;;;9.90;99.90;;;;;;1847736;77;21073;-79
2022/02/27 11:10:27;;;;;;;2.55;1.82;;;10.40;99.90;;;;;;1852050;77;21228;-78
2022/02/27 11:12:56;;;;;;;3.60;1.90;;;10.20;98.90;;;;;;1849487;77;21195;-77
2022/02/27 11:15:24;;;;;;;2.47;1.67;;;9.50;98.80;;;;;;1849738;77;21142;-78
2022/02/27 11:17:55;;;;;;;9.33;2.42;;;10.00;98.10;;;;;;1828009;75;21069;-79
2022/02/27 11:20:23;;;;;;;2.58;2.10;;;10.20;97.00;;;;;;1845683;77;21429;-79
2022/02/27 11:22:51;;;;;;;3.77;2.17;;;10.20;97.20;;;;;;1848324;77;21088;-79
2022/02/27 11:25:20;;;;;;;3.40;2.17;;;10.60;97.00;;;;;;1848043;77;21422;-79
2022/02/27 11:28:04;;;;;;;5.47;2.65;;;10.80;95.60;;;;;;1878965;76;21414;-78
2022/02/27 11:30:36;;;;;;;4.85;2.08;;;10.50;96.50;;;;;;1850564;77;21077;-79
2022/02/27 11:33:06;;;;;;;3.10;2.05;;;10.80;95.60;;;;;;1846761;77;21050;-78
2022/02/27 11:35:35;;;;;;;;;;;10.60;95.20;;;;;;1852997;77;21131;-79
2022/02/27 11:38:03;;;;;;;3.12;2.02;;;9.90;96.30;;;;;;1874556;75;20144;-80
2022/02/27 11:40:47;;;;;;;2.67;2.15;;;10.30;96.00;;;;;;1853645;77;21473;-79
2022/02/27 11:43:20;;;;;;;6.40;2.50;;;10.60;96.40;;;;;;1850084;77;21163;-80
2022/02/27 11:45:50;;;;;;;4.10;2.42;;;10.20;96.00;;;;;;1847978;78;21154;-78
2022/02/27 11:48:18;;;;;;;3.12;2.20;;;10.50;95.40;;;;;;1867607;75;21457;-78
2022/02/27 11:50:51;;;;;;;3.62;2.35;;;10.70;96.50;;;;;;1852134;75;21481;-77
2022/02/27 11:53:23;;;;;;;5.17;3.17;;;11.10;95.90;;;;;;1887712;75;21077;-77
2022/02/27 11:55:53;;;;;;;7.12;2.85;;;10.90;96.30;;;;;;1876024;76;21139;-80
2022/02/27 11:58:33;;;;;;;5.00;2.85;;;10.70;96.80;;;;;;1831376;77;21076;-77
2022/02/27 12:01:03;;;;;;;5.17;2.73;;;10.00;97.70;;;;;;1875675;76;21038;-79
2022/02/27 12:03:34;;;;;;;6.90;3.17;;;10.70;97.90;;;;;;1881422;74;21081;-78
2022/02/27 12:06:03;;;;;;;5.10;2.80;;;11.30;96.70;;;;;;1872205;75;21156;-78
2022/02/27 12:08:49;;;;;;;3.90;2.60;;;11.30;96.50;;;;;;1852730;77;21065;-77
2022/02/27 12:11:38;;;;;;;6.17;2.70;;;11.30;96.50;;;;;;1820488;77;21446;-77
2022/02/27 12:14:07;;;;;;;5.40;2.83;;;10.80;96.30;;;;;;1850292;77;21118;-78
2022/02/27 12:16:39;;;;;;;2.92;2.40;;;10.80;95.80;;;;;;1849633;77;21147;-78
2022/02/27 12:19:24;;;;;;;6.62;2.50;;;11.20;95.30;;;;;;1872788;76;21927;-81
2022/02/27 12:21:57;;;;;;;4.97;2.10;;;11.80;94.20;;;;;;1852507;75;21049;-80
2022/02/27 12:24:22;;;;;;;;;;;11.90;93.80;;;;;;1856652;77;21106;-76
2022/02/27 12:26:51;;;;;;;3.65;2.12;;;12.00;91.90;;;;;;1879737;76;20297;-79
2022/02/27 12:29:26;;;;;;;4.15;2.50;;;11.60;93.40;;;;;;1854226;75;21164;-78
2022/02/27 12:31:54;;;;;;;4.00;2.02;;;11.60;92.00;;;;;;1853814;75;21061;-79
2022/02/27 12:34:22;;;;;;;3.42;2.45;;;11.20;92.40;;;;;;1854094;77;21069;-78
2022/02/27 12:37:00;;;;;;;4.83;2.50;;;11.40;92.80;;;;;;1846252;77;21450;-80
2022/02/27 12:39:31;;;;;;;5.72;2.37;;;12.30;91.90;;;;;;1851705;75;21102;-79
2022/02/27 12:41:58;;;;;;;3.83;2.52;;;12.40;91.50;;;;;;1849569;77;21134;-78
2022/02/27 12:44:35;;;;;;;5.60;2.50;;;12.00;90.20;;;;;;1850924;77;21452;-78
2022/02/27 12:47:04;;;;;;;4.55;2.58;;;11.20;90.70;;;;;;1851787;77;21076;-79
2022/02/27 12:52:26;;;;;;;4.58;2.90;;;12.10;90.80;;;;;;1847850;77;21081;-79
2022/02/27 12:54:55;;;;;;;2.67;2.10;;;12.20;91.00;;;;;;1852974;77;21072;-79
2022/02/27 12:57:23;;;;;;;3.80;2.30;;;12.70;90.50;;;;;;1852220;77;21049;-79